sensor_id;sensor_type;location;lat;lon;timestamp;P1;durP1;ratioP1;P2;durP2;ratioP2
43861;SDS011;29510;52.140;5.034;2022-07-06T00:05:07;0.75;;;0.20;;
43861;SDS011;29510;52.140;5.034;2022-07-06T00:15:08;4.45;;;0.50;;
43861;SDS011;29510;52.140;5.034;2022-07-06T00:25:09;0.85;;;0.30;;
43861;SDS011;29510;52.140;5.034;2022-07-06T00:35:10;3.20;;;0.30;;
43861;SDS011;29510;52.140;5.034;2022-07-06T00:45:12;0.77;;;0.52;;
43861;SDS011;29510;52.140;5.034;2022-07-06T00:55:18;0.30;;;0.10;;
43861;SDS011;29510;52.140;5.034;2022-07-06T01:05:20;1.05;;;0.35;;
43861;SDS011;29510;52.140;5.034;2022-07-06T01:15:22;1.38;;;0.20;;
43861;SDS011;29510;52.140;5.034;2022-07-06T01:25:25;0.95;;;0.25;;
43861;SDS011;29510;52.140;5.034;2022-07-06T01:35:26;0.93;;;0.30;;
43861;SDS011;29510;52.140;5.034;2022-07-06T01:45:32;1.00;;;0.40;;
43861;SDS011;29510;52.140;5.034;2022-07-06T01:55:34;0.63;;;0.30;;
43861;SDS011;29510;52.140;5.034;2022-07-06T02:05:35;1.27;;;0.45;;
43861;SDS011;29510;52.140;5.034;2022-07-06T02:15:36;0.75;;;0.40;;
43861;SDS011;29510;52.140;5.034;2022-07-06T02:25:37;0.43;;;0.22;;
43861;SDS011;29510;52.140;5.034;2022-07-06T02:35:38;0.57;;;0.20;;
43861;SDS011;29510;52.140;5.034;2022-07-06T02:45:43;0.68;;;0.35;;
43861;SDS011;29510;52.140;5.034;2022-07-06T02:55:44;1.05;;;0.20;;
43861;SDS011;29510;52.140;5.034;2022-07-06T03:05:45;0.45;;;0.20;;
43861;SDS011;29510;52.140;5.034;2022-07-06T03:15:49;0.77;;;0.50;;
43861;SDS011;29510;52.140;5.034;2022-07-06T03:25:50;0.63;;;0.20;;
43861;SDS011;29510;52.140;5.034;2022-07-06T03:35:51;0.73;;;0.20;;
43861;SDS011;29510;52.140;5.034;2022-07-06T03:45:52;2.17;;;0.57;;
43861;SDS011;29510;52.140;5.034;2022-07-06T03:55:53;0.15;;;0.00;;
43861;SDS011;29510;52.140;5.034;2022-07-06T04:06:13;0.40;;;0.20;;
43861;SDS011;29510;52.140;5.034;2022-07-06T04:16:14;2.17;;;0.20;;
43861;SDS011;29510;52.140;5.034;2022-07-06T04:26:15;1.50;;;0.30;;
43861;SDS011;29510;52.140;5.034;2022-07-06T04:36:17;0.77;;;0.20;;
43861;SDS011;29510;52.140;5.034;2022-07-06T04:46:18;0.80;;;0.30;;
43861;SDS011;29510;52.140;5.034;2022-07-06T04:56:19;0.63;;;0.20;;
43861;SDS011;29510;52.140;5.034;2022-07-06T05:06:20;0.70;;;0.30;;
43861;SDS011;29510;52.140;5.034;2022-07-06T05:16:22;0.52;;;0.10;;
43861;SDS011;29510;52.140;5.034;2022-07-06T05:26:23;0.35;;;0.20;;
43861;SDS011;29510;52.140;5.034;2022-07-06T05:36:24;0.95;;;0.20;;
43861;SDS011;29510;52.140;5.034;2022-07-06T05:46:26;0.73;;;0.20;;
43861;SDS011;29510;52.140;5.034;2022-07-06T05:56:28;0.55;;;0.20;;
43861;SDS011;29510;52.140;5.034;2022-07-06T06:06:29;0.52;;;0.15;;
43861;SDS011;29510;52.140;5.034;2022-07-06T06:16:33;0.60;;;0.10;;
43861;SDS011;29510;52.140;5.034;2022-07-06T06:26:34;0.13;;;0.05;;
43861;SDS011;29510;52.140;5.034;2022-07-06T06:36:35;0.50;;;0.15;;
43861;SDS011;29510;52.140;5.034;2022-07-06T06:46:36;0.40;;;0.17;;
43861;SDS011;29510;52.140;5.034;2022-07-06T06:56:38;0.50;;;0.17;;
43861;SDS011;29510;52.140;5.034;2022-07-06T07:06:39;0.25;;;0.10;;
43861;SDS011;29510;52.140;5.034;2022-07-06T07:16:40;0.70;;;0.45;;
43861;SDS011;29510;52.140;5.034;2022-07-06T07:26:41;0.73;;;0.10;;
43861;SDS011;29510;52.140;5.034;2022-07-06T07:36:43;0.20;;;0.10;;
43861;SDS011;29510;52.140;5.034;2022-07-06T07:46:44;1.48;;;0.10;;
43861;SDS011;29510;52.140;5.034;2022-07-06T07:56:45;0.17;;;0.03;;
43861;SDS011;29510;52.140;5.034;2022-07-06T08:06:46;0.22;;;0.10;;
43861;SDS011;29510;52.140;5.034;2022-07-06T08:16:48;0.85;;;0.00;;
43861;SDS011;29510;52.140;5.034;2022-07-06T08:26:49;2.72;;;0.10;;
43861;SDS011;29510;52.140;5.034;2022-07-06T08:36:50;0.20;;;0.00;;
43861;SDS011;29510;52.140;5.034;2022-07-06T08:46:51;0.20;;;0.08;;
43861;SDS011;29510;52.140;5.034;2022-07-06T08:56:54;0.90;;;0.20;;
43861;SDS011;29510;52.140;5.034;2022-07-06T09:07:00;0.30;;;0.10;;
43861;SDS011;29510;52.140;5.034;2022-07-06T09:17:05;0.32;;;0.10;;
43861;SDS011;29510;52.140;5.034;2022-07-06T09:27:14;0.73;;;0.10;;
43861;SDS011;29510;52.140;5.034;2022-07-06T09:37:17;0.40;;;0.10;;
43861;SDS011;29510;52.140;5.034;2022-07-06T09:47:18;1.27;;;0.10;;
43861;SDS011;29510;52.140;5.034;2022-07-06T09:57:21;0.30;;;0.10;;
43861;SDS011;29510;52.140;5.034;2022-07-06T10:07:23;0.52;;;0.10;;
43861;SDS011;29510;52.140;5.034;2022-07-06T10:17:25;0.50;;;0.13;;
43861;SDS011;29510;52.140;5.034;2022-07-06T10:27:26;0.13;;;0.08;;
43861;SDS011;29510;52.140;5.034;2022-07-06T10:37:29;0.30;;;0.10;;
43861;SDS011;29510;52.140;5.034;2022-07-06T10:47:33;0.20;;;0.10;;
43861;SDS011;29510;52.140;5.034;2022-07-06T10:57:51;0.45;;;0.10;;
43861;SDS011;29510;52.140;5.034;2022-07-06T11:07:52;0.20;;;0.00;;
43861;SDS011;29510;52.140;5.034;2022-07-06T11:18:11;0.28;;;0.10;;
43861;SDS011;29510;52.140;5.034;2022-07-06T11:28:13;0.45;;;0.15;;
43861;SDS011;29510;52.140;5.034;2022-07-06T11:38:25;0.73;;;0.20;;
43861;SDS011;29510;52.140;5.034;2022-07-06T11:48:26;3.38;;;0.28;;
43861;SDS011;29510;52.140;5.034;2022-07-06T11:58:28;0.30;;;0.10;;
43861;SDS011;29510;52.140;5.034;2022-07-06T12:08:40;0.52;;;0.13;;
43861;SDS011;29510;52.140;5.034;2022-07-06T12:18:46;0.35;;;0.10;;
43861;SDS011;29510;52.140;5.034;2022-07-06T12:28:58;0.13;;;0.05;;
43861;SDS011;29510;52.140;5.034;2022-07-06T12:39:12;1.08;;;0.20;;
43861;SDS011;29510;52.140;5.034;2022-07-06T12:49:16;2.65;;;0.25;;
43861;SDS011;29510;52.140;5.034;2022-07-06T12:59:21;0.52;;;0.10;;
43861;SDS011;29510;52.140;5.034;2022-07-06T13:09:23;0.82;;;0.68;;
43861;SDS011;29510;52.140;5.034;2022-07-06T13:19:24;0.35;;;0.10;;
43861;SDS011;29510;52.140;5.034;2022-07-06T13:29:25;0.55;;;0.20;;
43861;SDS011;29510;52.140;5.034;2022-07-06T13:39:26;0.43;;;0.20;;
43861;SDS011;29510;52.140;5.034;2022-07-06T13:49:28;0.68;;;0.20;;
43861;SDS011;29510;52.140;5.034;2022-07-06T13:59:29;1.48;;;0.40;;
43861;SDS011;29510;52.140;5.034;2022-07-06T14:09:32;0.47;;;0.20;;
43861;SDS011;29510;52.140;5.034;2022-07-06T14:19:33;0.77;;;0.20;;
43861;SDS011;29510;52.140;5.034;2022-07-06T14:29:34;1.00;;;0.30;;
43861;SDS011;29510;52.140;5.034;2022-07-06T14:39:36;1.55;;;0.45;;
43861;SDS011;29510;52.140;5.034;2022-07-06T14:49:37;1.30;;;0.52;;
43861;SDS011;29510;52.140;5.034;2022-07-06T14:59:38;0.60;;;0.35;;
43861;SDS011;29510;52.140;5.034;2022-07-06T15:09:40;1.02;;;0.50;;
43861;SDS011;29510;52.140;5.034;2022-07-06T15:19:41;2.40;;;1.00;;
43861;SDS011;29510;52.140;5.034;2022-07-06T15:29:43;2.80;;;0.50;;
43861;SDS011;29510;52.140;5.034;2022-07-06T15:39:45;2.20;;;1.00;;
43861;SDS011;29510;52.140;5.034;2022-07-06T15:49:46;0.77;;;0.40;;
43861;SDS011;29510;52.140;5.034;2022-07-06T15:59:49;1.50;;;0.68;;
43861;SDS011;29510;52.140;5.034;2022-07-06T16:09:54;1.02;;;0.50;;
43861;SDS011;29510;52.140;5.034;2022-07-06T16:19:58;1.73;;;0.50;;
43861;SDS011;29510;52.140;5.034;2022-07-06T16:29:59;1.15;;;0.43;;
43861;SDS011;29510;52.140;5.034;2022-07-06T16:40:01;1.17;;;0.60;;
43861;SDS011;29510;52.140;5.034;2022-07-06T16:50:03;1.60;;;0.35;;
43861;SDS011;29510;52.140;5.034;2022-07-06T17:00:04;0.77;;;0.20;;
43861;SDS011;29510;52.140;5.034;2022-07-06T17:10:06;0.85;;;0.20;;
43861;SDS011;29510;52.140;5.034;2022-07-06T17:20:08;1.48;;;0.20;;
43861;SDS011;29510;52.140;5.034;2022-07-06T17:30:09;0.65;;;0.35;;
43861;SDS011;29510;52.140;5.034;2022-07-06T17:40:10;1.58;;;0.68;;
43861;SDS011;29510;52.140;5.034;2022-07-06T17:50:12;1.10;;;0.40;;
43861;SDS011;29510;52.140;5.034;2022-07-06T18:00:13;1.13;;;0.50;;
43861;SDS011;29510;52.140;5.034;2022-07-06T18:10:15;1.15;;;0.30;;
43861;SDS011;29510;52.140;5.034;2022-07-06T18:20:16;0.75;;;0.32;;
43861;SDS011;29510;52.140;5.034;2022-07-06T18:30:17;1.60;;;0.38;;
43861;SDS011;29510;52.140;5.034;2022-07-06T18:40:20;1.00;;;0.30;;
43861;SDS011;29510;52.140;5.034;2022-07-06T18:50:21;1.20;;;0.35;;
43861;SDS011;29510;52.140;5.034;2022-07-06T19:00:23;0.73;;;0.30;;
43861;SDS011;29510;52.140;5.034;2022-07-06T19:10:25;1.35;;;0.28;;
43861;SDS011;29510;52.140;5.034;2022-07-06T19:20:26;1.30;;;0.47;;
43861;SDS011;29510;52.140;5.034;2022-07-06T19:30:27;1.23;;;0.63;;
43861;SDS011;29510;52.140;5.034;2022-07-06T19:40:28;2.70;;;0.30;;
43861;SDS011;29510;52.140;5.034;2022-07-06T19:50:29;1.33;;;0.40;;
43861;SDS011;29510;52.140;5.034;2022-07-06T20:00:30;0.93;;;0.52;;
43861;SDS011;29510;52.140;5.034;2022-07-06T20:10:31;1.10;;;0.50;;
43861;SDS011;29510;52.140;5.034;2022-07-06T20:20:33;0.80;;;0.30;;
43861;SDS011;29510;52.140;5.034;2022-07-06T20:30:35;1.15;;;0.65;;
43861;SDS011;29510;52.140;5.034;2022-07-06T20:40:36;1.55;;;0.60;;
43861;SDS011;29510;52.140;5.034;2022-07-06T20:50:37;1.80;;;0.55;;
43861;SDS011;29510;52.140;5.034;2022-07-06T21:00:38;1.55;;;0.50;;
43861;SDS011;29510;52.140;5.034;2022-07-06T21:10:39;0.80;;;0.35;;
43861;SDS011;29510;52.140;5.034;2022-07-06T21:20:40;1.23;;;0.80;;
43861;SDS011;29510;52.140;5.034;2022-07-06T21:30:42;0.98;;;0.40;;
43861;SDS011;29510;52.140;5.034;2022-07-06T21:40:44;1.48;;;0.63;;
43861;SDS011;29510;52.140;5.034;2022-07-06T21:50:45;2.75;;;0.68;;
43861;SDS011;29510;52.140;5.034;2022-07-06T22:00:46;1.67;;;0.70;;
43861;SDS011;29510;52.140;5.034;2022-07-06T22:10:47;1.58;;;0.70;;
43861;SDS011;29510;52.140;5.034;2022-07-06T22:20:48;2.53;;;0.70;;
43861;SDS011;29510;52.140;5.034;2022-07-06T22:30:49;2.85;;;0.82;;
43861;SDS011;29510;52.140;5.034;2022-07-06T22:40:55;1.77;;;0.60;;
43861;SDS011;29510;52.140;5.034;2022-07-06T22:51:01;2.13;;;1.20;;
43861;SDS011;29510;52.140;5.034;2022-07-06T23:01:03;1.70;;;0.60;;
43861;SDS011;29510;52.140;5.034;2022-07-06T23:11:04;2.60;;;1.10;;
43861;SDS011;29510;52.140;5.034;2022-07-06T23:21:05;1.50;;;0.75;;
43861;SDS011;29510;52.140;5.034;2022-07-06T23:31:07;3.25;;;1.50;;
43861;SDS011;29510;52.140;5.034;2022-07-06T23:41:08;2.65;;;1.10;;
43861;SDS011;29510;52.140;5.034;2022-07-06T23:51:09;1.70;;;0.80;;
